Time;durP1;ratioP1;P1;durP2;ratioP2;P2;SDS_P1;SDS_P2;PMS_P1;PMS_P2;Temp;Humidity;BMP_temperature;BMP_pressure;BME280_temperature;BME280_humidity;BME280_pressure;Samples;Min_cycle;Max_cycle;Signal;HPM_P1;HPM_P2
2023/07/26 00:00:40;;;;;;;6.43;3.88;;;23.10;52.90;;;;;;4987361;28;114455;-78
2023/07/26 00:03:07;;;;;;;6.28;3.78;;;23.20;52.70;;;;;;4987967;28;114221;-79
2023/07/26 00:05:34;;;;;;;5.20;3.45;;;23.20;52.70;;;;;;4986504;28;115427;-79
2023/07/26 00:08:02;;;;;;;7.30;4.15;;;23.30;52.60;;;;;;4986477;28;115208;-78
2023/07/26 00:10:29;;;;;;;6.05;4.35;;;23.30;52.40;;;;;;4987842;28;114138;-79
2023/07/26 00:12:56;;;;;;;6.00;4.13;;;23.30;52.40;;;;;;4986883;28;114737;-78
2023/07/26 00:15:23;;;;;;;5.25;3.80;;;23.30;52.20;;;;;;4985506;28;115327;-78
2023/07/26 00:17:50;;;;;;;5.05;4.05;;;23.30;52.20;;;;;;4985438;28;115126;-78
2023/07/26 00:20:17;;;;;;;4.47;3.20;;;23.30;52.20;;;;;;4987757;28;114302;-79
2023/07/26 00:22:44;;;;;;;4.55;3.67;;;23.30;52.20;;;;;;4986515;28;114280;-78
2023/07/26 00:25:11;;;;;;;8.32;5.22;;;23.30;52.30;;;;;;4986620;28;115061;-77
2023/07/26 00:27:38;;;;;;;5.95;4.22;;;23.30;52.30;;;;;;4985086;28;114837;-78
2023/07/26 00:30:06;;;;;;;6.72;4.88;;;23.20;52.50;;;;;;4969851;28;114316;-79
2023/07/26 00:32:33;;;;;;;5.88;3.88;;;23.10;52.70;;;;;;4969804;28;114548;-78
2023/07/26 00:35:02;;;;;;;8.02;4.00;;;23.10;52.80;;;;;;4985204;28;117330;-78
2023/07/26 00:37:29;;;;;;;7.78;3.95;;;23.20;52.80;;;;;;4971857;28;115322;-78
2023/07/26 00:39:57;;;;;;;7.00;5.00;;;23.20;52.70;;;;;;4989382;28;114615;-78
2023/07/26 00:42:24;;;;;;;8.48;5.05;;;23.30;52.60;;;;;;4991224;28;114307;-78
2023/07/26 00:44:51;;;;;;;10.85;5.78;;;23.20;52.60;;;;;;4989969;28;114848;-78
2023/07/26 00:47:19;;;;;;;7.57;4.78;;;23.20;52.70;;;;;;4956505;28;118619;-78
2023/07/26 00:49:47;;;;;;;6.95;4.10;;;23.20;52.80;;;;;;4990565;28;114375;-77
2023/07/26 00:52:14;;;;;;;6.75;4.45;;;23.20;52.80;;;;;;4990916;28;114057;-78
2023/07/26 00:54:41;;;;;;;5.38;3.95;;;23.20;52.70;;;;;;4972029;28;118093;-77
2023/07/26 00:57:08;;;;;;;8.55;4.35;;;23.30;52.70;;;;;;4988506;28;114625;-78
2023/07/26 00:59:35;;;;;;;9.45;5.80;;;23.30;52.60;;;;;;4989546;28;114288;-79
2023/07/26 01:02:02;;;;;;;7.85;5.57;;;23.30;52.50;;;;;;4990929;28;114352;-78
2023/07/26 01:04:29;;;;;;;5.95;4.00;;;23.20;52.70;;;;;;4971992;28;116242;-78
2023/07/26 01:07:01;;;;;;;9.40;6.30;;;23.10;52.80;;;;;;4988309;28;114585;-78
2023/07/26 01:09:44;;;;;;;8.40;5.93;;;23.00;52.90;;;;;;4989340;28;114807;-79
2023/07/26 01:12:15;;;;;;;7.65;5.13;;;23.00;53.00;;;;;;4989425;28;114174;-78
2023/07/26 01:14:50;;;;;;;8.88;5.60;;;22.90;53.10;;;;;;4988198;28;114853;-79
2023/07/26 01:17:17;;;;;;;7.05;4.25;;;22.90;53.30;;;;;;4989549;28;115233;-79
2023/07/26 01:19:45;;;;;;;6.18;4.25;;;22.90;53.30;;;;;;4989034;28;114391;-78
2023/07/26 01:22:12;;;;;;;9.82;5.93;;;22.90;53.20;;;;;;4990389;28;114296;-79
2023/07/26 01:24:39;;;;;;;7.80;4.88;;;23.00;53.10;;;;;;4987682;28;116702;-79
2023/07/26 01:27:06;;;;;;;8.27;5.63;;;23.00;53.10;;;;;;4988854;28;116754;-79
2023/07/26 01:29:33;;;;;;;6.10;4.25;;;23.00;53.00;;;;;;4988670;28;114170;-78
2023/07/26 01:32:00;;;;;;;8.55;5.15;;;23.00;53.00;;;;;;4989422;28;115015;-78
2023/07/26 01:34:27;;;;;;;8.05;5.45;;;23.10;52.90;;;;;;4988094;28;115105;-79
2023/07/26 01:36:54;;;;;;;9.13;4.82;;;23.10;52.90;;;;;;4987338;28;114587;-78
2023/07/26 01:39:21;;;;;;;6.13;4.72;;;23.20;52.90;;;;;;4988414;28;114459;-79
2023/07/26 01:41:48;;;;;;;7.68;4.80;;;23.20;52.80;;;;;;4972835;28;114432;-79
2023/07/26 01:44:15;;;;;;;5.82;4.13;;;23.20;52.70;;;;;;4987726;28;114811;-79
2023/07/26 01:46:42;;;;;;;7.45;4.60;;;23.20;52.70;;;;;;4970891;28;115196;-78
2023/07/26 01:49:10;;;;;;;8.95;4.38;;;23.30;52.70;;;;;;4988326;28;114157;-80
2023/07/26 01:51:38;;;;;;;7.07;4.70;;;23.30;52.60;;;;;;4988489;28;114360;-79
2023/07/26 01:54:08;;;;;;;7.57;5.32;;;23.30;52.50;;;;;;4971336;28;114925;-79
2023/07/26 01:56:35;;;;;;;7.78;6.00;;;23.30;52.50;;;;;;4987999;28;114615;-79
2023/07/26 01:59:03;;;;;;;7.35;5.43;;;23.30;52.60;;;;;;4988577;28;114530;-78
2023/07/26 02:01:33;;;;;;;6.22;4.80;;;23.30;52.50;;;;;;4972763;28;114263;-81
2023/07/26 02:04:02;;;;;;;9.93;6.60;;;23.20;52.60;;;;;;4988553;28;115718;-79
2023/07/26 02:06:29;;;;;;;8.52;5.63;;;23.30;52.70;;;;;;4988637;28;114715;-79
2023/07/26 02:08:57;;;;;;;8.57;5.68;;;23.20;52.70;;;;;;4988024;28;114273;-79
2023/07/26 02:11:24;;;;;;;8.75;6.32;;;23.20;52.60;;;;;;4955658;28;114573;-79
2023/07/26 02:13:54;;;;;;;6.55;4.32;;;23.30;52.70;;;;;;4987357;28;114848;-80
2023/07/26 02:16:22;;;;;;;10.32;7.13;;;23.30;52.60;;;;;;4988236;28;114848;-80
2023/07/26 02:18:49;;;;;;;7.88;4.93;;;23.30;52.70;;;;;;4988026;28;114424;-80
2023/07/26 02:21:19;;;;;;;6.43;5.30;;;23.30;52.60;;;;;;4989831;28;114316;-79
2023/07/26 02:23:46;;;;;;;7.95;6.13;;;23.30;52.60;;;;;;4988325;28;114914;-79
2023/07/26 02:26:13;;;;;;;7.32;4.35;;;23.30;52.60;;;;;;4988204;28;114645;-79
2023/07/26 02:28:40;;;;;;;7.60;5.22;;;23.30;52.50;;;;;;4987856;28;114198;-79
2023/07/26 02:31:07;;;;;;;8.18;4.70;;;23.30;52.40;;;;;;4971804;28;114627;-80
2023/07/26 02:33:34;;;;;;;6.53;5.18;;;23.40;52.40;;;;;;4987019;28;114875;-80
2023/07/26 02:36:02;;;;;;;6.95;4.90;;;23.40;52.40;;;;;;4986587;28;115074;-79
2023/07/26 02:38:29;;;;;;;7.30;4.78;;;23.40;52.40;;;;;;4971428;28;114355;-78
2023/07/26 02:40:56;;;;;;;7.25;5.22;;;23.40;52.30;;;;;;4987981;28;114328;-80
2023/07/26 02:43:23;;;;;;;8.40;6.20;;;23.40;52.40;;;;;;4988013;28;115477;-79
2023/07/26 02:46:06;;;;;;;8.30;6.13;;;23.40;52.60;;;;;;4972542;28;114647;-78
2023/07/26 02:48:34;;;;;;;13.30;10.38;;;23.30;52.70;;;;;;4987629;28;114199;-79
2023/07/26 02:51:01;;;;;;;8.15;6.03;;;23.30;53.40;;;;;;4987569;28;114673;-78
2023/07/26 02:53:28;;;;;;;12.20;8.43;;;23.30;53.00;;;;;;4986009;28;115396;-79
2023/07/26 02:55:55;;;;;;;9.73;7.00;;;23.20;53.40;;;;;;4986558;28;114683;-78
2023/07/26 02:58:22;;;;;;;11.50;9.10;;;23.10;53.50;;;;;;4987706;28;114167;-80
2023/07/26 03:00:53;;;;;;;7.18;5.82;;;23.00;53.70;;;;;;4989069;28;114360;-80
2023/07/26 03:03:20;;;;;;;8.60;6.80;;;23.00;53.40;;;;;;4986685;28;114981;-79
2023/07/26 03:05:47;;;;;;;16.70;14.95;;;22.90;53.60;;;;;;4985876;28;116509;-78
2023/07/26 03:08:14;;;;;;;8.32;6.10;;;22.90;54.10;;;;;;4988322;28;114137;-78
2023/07/26 03:10:41;;;;;;;9.57;8.63;;;22.70;54.00;;;;;;4986848;28;114738;-79
2023/07/26 03:13:08;;;;;;;7.45;6.38;;;22.70;54.40;;;;;;4987793;28;114949;-79
2023/07/26 03:15:39;;;;;;;14.75;13.18;;;22.60;54.40;;;;;;4986263;28;117274;-79
2023/07/26 03:18:06;;;;;;;8.93;5.95;;;22.50;55.10;;;;;;4988199;28;114329;-79
2023/07/26 03:20:33;;;;;;;11.88;9.80;;;22.60;54.60;;;;;;4988511;28;114234;-79
2023/07/26 03:23:00;;;;;;;10.82;8.60;;;22.70;54.70;;;;;;4986167;28;114880;-79
2023/07/26 03:25:27;;;;;;;14.23;11.93;;;22.70;54.60;;;;;;4986223;28;114586;-79
2023/07/26 03:27:55;;;;;;;10.60;8.95;;;22.70;54.80;;;;;;4986711;28;114073;-78
2023/07/26 03:30:22;;;;;;;10.35;9.25;;;22.60;54.50;;;;;;4988365;28;114248;-79
2023/07/26 03:32:49;;;;;;;11.57;8.48;;;22.50;54.70;;;;;;4987112;28;115152;-78
2023/07/26 03:35:17;;;;;;;10.20;8.77;;;22.30;54.90;;;;;;4969535;28;114564;-77
2023/07/26 03:37:44;;;;;;;10.00;7.70;;;22.30;55.20;;;;;;4987033;28;114157;-78
2023/07/26 03:40:13;;;;;;;11.70;9.38;;;22.30;55.20;;;;;;4987271;28;114349;-78
2023/07/26 03:42:42;;;;;;;13.10;9.95;;;22.30;55.20;;;;;;4985741;28;114889;-78
2023/07/26 03:45:09;;;;;;;17.73;13.00;;;22.40;55.20;;;;;;4986388;28;114601;-78
2023/07/26 03:47:36;;;;;;;13.52;9.77;;;22.40;55.00;;;;;;4986684;28;114630;-79
2023/07/26 03:50:05;;;;;;;12.05;8.38;;;22.50;54.90;;;;;;4988104;28;114027;-79
2023/07/26 03:52:32;;;;;;;15.70;11.63;;;22.50;54.90;;;;;;4986073;28;115034;-78
2023/07/26 03:54:59;;;;;;;16.33;10.05;;;22.50;54.90;;;;;;4985549;28;117590;-78
2023/07/26 03:57:26;;;;;;;13.30;9.55;;;22.60;54.70;;;;;;4987689;28;114560;-78
2023/07/26 03:59:53;;;;;;;11.13;9.93;;;22.60;54.60;;;;;;4986996;28;114355;-78
2023/07/26 04:02:22;;;;;;;15.48;11.80;;;22.70;54.50;;;;;;4985798;28;114873;-79
2023/07/26 04:04:49;;;;;;;10.70;8.27;;;22.60;54.50;;;;;;4985245;28;114922;-78
2023/07/26 04:07:16;;;;;;;11.48;8.57;;;22.60;54.40;;;;;;4986462;28;114326;-78
2023/07/26 04:09:43;;;;;;;11.48;9.27;;;22.70;54.30;;;;;;4971456;28;114208;-79
2023/07/26 04:12:10;;;;;;;10.05;8.90;;;22.70;54.20;;;;;;4989181;28;114895;-79
2023/07/26 04:14:37;;;;;;;11.82;8.35;;;22.80;54.00;;;;;;4990448;28;115054;-79
2023/07/26 04:17:04;;;;;;;11.10;8.32;;;22.80;54.00;;;;;;4990125;28;114268;-78
2023/07/26 04:19:31;;;;;;;12.25;9.63;;;22.80;53.80;;;;;;4991623;28;114785;-78
2023/07/26 04:21:58;;;;;;;8.93;7.80;;;22.80;53.80;;;;;;4972598;28;114930;-78
2023/07/26 04:24:25;;;;;;;10.43;8.40;;;22.80;53.80;;;;;;4990254;28;114595;-79
2023/07/26 04:26:53;;;;;;;13.50;11.10;;;22.80;53.90;;;;;;4989497;28;114522;-79
2023/07/26 04:29:20;;;;;;;12.32;8.52;;;22.80;53.90;;;;;;4973018;28;114308;-78
2023/07/26 04:31:47;;;;;;;13.82;8.80;;;22.70;54.00;;;;;;4990227;28;114828;-78
2023/07/26 04:34:14;;;;;;;13.05;10.68;;;22.70;54.00;;;;;;4989827;28;114580;-78
2023/07/26 04:36:41;;;;;;;11.57;7.80;;;22.70;54.00;;;;;;4988625;28;114471;-77
2023/07/26 04:39:09;;;;;;;11.65;7.88;;;22.70;53.90;;;;;;4989695;28;114526;-78
2023/07/26 04:41:36;;;;;;;17.35;12.48;;;22.70;53.90;;;;;;4989897;28;115127;-79
2023/07/26 04:44:03;;;;;;;11.43;7.78;;;22.70;53.80;;;;;;4988478;28;114898;-78
2023/07/26 04:46:30;;;;;;;16.60;11.63;;;22.60;53.90;;;;;;4987676;28;114376;-78
2023/07/26 04:48:58;;;;;;;13.43;10.85;;;22.60;54.10;;;;;;4987905;28;114314;-78
2023/07/26 04:51:25;;;;;;;12.10;9.73;;;22.50;54.00;;;;;;4986718;28;116113;-78
2023/07/26 04:53:52;;;;;;;11.02;7.22;;;22.40;54.00;;;;;;4986739;28;114630;-79
2023/07/26 04:56:19;;;;;;;11.00;8.05;;;22.30;54.40;;;;;;4988838;28;114325;-78
2023/07/26 04:58:48;;;;;;;13.18;10.50;;;22.30;54.40;;;;;;4971588;28;114337;-78
2023/07/26 05:01:16;;;;;;;14.75;8.98;;;22.30;54.20;;;;;;4986391;28;114995;-78
2023/07/26 05:03:43;;;;;;;14.57;10.57;;;22.30;54.20;;;;;;4986619;28;114708;-79
2023/07/26 05:06:10;;;;;;;15.15;12.38;;;22.30;53.90;;;;;;4988559;28;114424;-78
2023/07/26 05:08:38;;;;;;;11.77;8.18;;;22.30;54.00;;;;;;4987889;28;114422;-78
2023/07/26 05:11:05;;;;;;;11.10;7.15;;;22.30;54.30;;;;;;4988035;28;114951;-79
2023/07/26 05:13:33;;;;;;;14.05;10.45;;;22.30;54.30;;;;;;4988053;28;114636;-78
2023/07/26 05:16:00;;;;;;;16.73;12.35;;;22.30;54.10;;;;;;4987907;28;114243;-78
2023/07/26 05:18:27;;;;;;;18.13;13.90;;;22.30;53.80;;;;;;4988552;28;114245;-78
2023/07/26 05:20:54;;;;;;;15.32;12.23;;;22.30;53.70;;;;;;4986438;28;114901;-79
2023/07/26 05:23:21;;;;;;;13.05;7.63;;;22.10;53.90;;;;;;4987180;28;115198;-78
2023/07/26 05:25:48;;;;;;;14.20;9.85;;;22.00;54.50;;;;;;4988222;28;114281;-79
2023/07/26 05:28:15;;;;;;;16.42;10.57;;;22.00;54.10;;;;;;4987181;28;114205;-79
2023/07/26 05:30:42;;;;;;;12.38;9.23;;;22.10;53.80;;;;;;4987148;28;115056;-78
2023/07/26 05:33:09;;;;;;;11.73;8.57;;;22.10;53.90;;;;;;4986342;28;114601;-79
2023/07/26 05:35:37;;;;;;;13.65;9.90;;;22.00;53.90;;;;;;4988535;28;114263;-79
2023/07/26 05:38:04;;;;;;;14.48;12.30;;;21.80;53.70;;;;;;4987680;28;114369;-78
2023/07/26 05:40:32;;;;;;;14.18;11.95;;;21.80;53.90;;;;;;4986065;28;114944;-78
2023/07/26 05:42:59;;;;;;;13.70;10.65;;;21.80;53.80;;;;;;4986037;28;114675;-78
2023/07/26 05:45:26;;;;;;;11.32;10.25;;;21.70;53.80;;;;;;4970351;28;114400;-79
2023/07/26 05:47:53;;;;;;;13.20;9.68;;;21.40;53.90;;;;;;4988593;28;114576;-77
2023/07/26 05:50:20;;;;;;;10.23;8.93;;;21.30;54.10;;;;;;4987211;28;115101;-78
2023/07/26 05:52:51;;;;;;;12.43;9.85;;;21.10;54.70;;;;;;4985828;28;114836;-78
2023/07/26 05:55:19;;;;;;;14.68;8.40;;;21.20;54.60;;;;;;4988005;28;114113;-78
2023/07/26 05:57:46;;;;;;;9.68;7.57;;;21.00;55.00;;;;;;4986322;28;114424;-78
2023/07/26 06:00:13;;;;;;;12.48;7.85;;;20.90;55.20;;;;;;4985645;28;114626;-79
2023/07/26 06:02:41;;;;;;;11.00;7.13;;;20.90;54.90;;;;;;4987375;28;114834;-78
2023/07/26 06:05:08;;;;;;;9.75;7.45;;;21.10;55.20;;;;;;4986812;28;114322;-79
2023/07/26 06:07:37;;;;;;;9.07;7.13;;;21.10;55.10;;;;;;4986652;28;114292;-78
2023/07/26 06:10:04;;;;;;;10.05;8.00;;;21.00;55.10;;;;;;4985431;28;114904;-79
2023/07/26 06:12:32;;;;;;;9.30;7.18;;;21.00;54.60;;;;;;4989015;28;114826;-79
2023/07/26 06:14:59;;;;;;;11.40;8.10;;;20.90;54.80;;;;;;4991748;28;114388;-78
2023/07/26 06:17:26;;;;;;;8.75;7.65;;;20.80;54.50;;;;;;4987962;28;114200;-78
2023/07/26 06:19:53;;;;;;;10.15;8.73;;;20.60;55.00;;;;;;4985124;28;115482;-78
2023/07/26 06:22:20;;;;;;;9.10;7.20;;;20.40;55.30;;;;;;4987150;28;114584;-78
2023/07/26 06:24:50;;;;;;;9.40;7.78;;;20.30;55.60;;;;;;4989593;28;114222;-79
2023/07/26 06:27:28;;;;;;;7.93;6.55;;;20.00;55.70;;;;;;4989996;28;114204;-78
2023/07/26 06:29:55;;;;;;;7.57;6.50;;;19.80;56.60;;;;;;4985395;28;114906;-79
2023/07/26 06:32:22;;;;;;;11.27;7.43;;;19.80;56.80;;;;;;4985357;28;114669;-78
2023/07/26 06:34:49;;;;;;;9.85;7.15;;;19.90;56.80;;;;;;4985665;28;114183;-79
2023/07/26 06:37:16;;;;;;;10.60;6.45;;;19.80;56.40;;;;;;4985401;28;114497;-78
2023/07/26 06:39:43;;;;;;;7.05;6.00;;;19.90;56.30;;;;;;4986499;28;114849;-78
2023/07/26 06:42:11;;;;;;;8.07;6.07;;;19.80;56.60;;;;;;4985106;28;115284;-79
2023/07/26 06:44:39;;;;;;;10.02;6.03;;;19.80;57.10;;;;;;4987250;28;114127;-80
2023/07/26 06:47:07;;;;;;;7.15;5.10;;;20.00;57.20;;;;;;4986028;28;114251;-78
2023/07/26 06:49:35;;;;;;;6.68;4.70;;;20.00;57.60;;;;;;4968628;28;114854;-79
2023/07/26 06:52:03;;;;;;;9.45;5.78;;;20.10;57.20;;;;;;4986586;28;114683;-79
2023/07/26 06:54:30;;;;;;;9.13;6.50;;;20.10;56.70;;;;;;4985556;28;114307;-77
2023/07/26 06:56:57;;;;;;;11.10;5.38;;;20.20;56.20;;;;;;4986977;28;114207;-78
2023/07/26 06:59:24;;;;;;;6.90;4.82;;;20.30;56.30;;;;;;4984324;28;115046;-79
2023/07/26 07:01:52;;;;;;;7.47;5.18;;;20.30;56.60;;;;;;4967965;28;115722;-78
2023/07/26 07:04:19;;;;;;;14.38;7.47;;;20.50;56.60;;;;;;4987078;28;114572;-79
2023/07/26 07:06:46;;;;;;;9.20;6.00;;;20.60;55.40;;;;;;4985286;28;114209;-80
2023/07/26 07:09:14;;;;;;;8.85;6.10;;;20.60;55.80;;;;;;4985490;28;116159;-78
2023/07/26 07:11:41;;;;;;;8.55;5.78;;;20.60;55.30;;;;;;4984520;28;114837;-78
2023/07/26 07:14:08;;;;;;;10.10;6.30;;;20.60;55.80;;;;;;4986662;28;114337;-78
2023/07/26 07:16:37;;;;;;;11.90;7.63;;;20.60;55.50;;;;;;4987179;28;114276;-79
2023/07/26 07:19:04;;;;;;;13.77;7.60;;;20.70;55.40;;;;;;4984971;28;115532;-78
2023/07/26 07:21:31;;;;;;;10.50;7.43;;;20.80;54.80;;;;;;4984374;28;118628;-79
2023/07/26 07:23:59;;;;;;;9.70;6.40;;;20.80;54.80;;;;;;4986078;28;114152;-79
2023/07/26 07:26:29;;;;;;;7.25;5.60;;;20.90;54.90;;;;;;4985443;28;114051;-79
2023/07/26 07:28:59;;;;;;;8.15;4.80;;;20.90;55.30;;;;;;4984358;28;114899;-80
2023/07/26 07:31:26;;;;;;;9.32;6.35;;;21.00;55.20;;;;;;4984310;28;115201;-79
2023/07/26 07:33:53;;;;;;;9.63;6.78;;;21.20;54.30;;;;;;4986578;28;114234;-78
2023/07/26 07:36:20;;;;;;;8.48;6.85;;;21.20;54.00;;;;;;4984424;28;114451;-79
2023/07/26 07:38:47;;;;;;;8.88;6.65;;;21.10;53.60;;;;;;4967574;28;115508;-77
2023/07/26 07:41:14;;;;;;;11.23;7.75;;;21.00;53.90;;;;;;4985455;28;115918;-78
2023/07/26 07:43:42;;;;;;;6.10;4.72;;;20.80;53.80;;;;;;4986159;28;114403;-78
2023/07/26 07:46:09;;;;;;;7.63;5.45;;;20.80;55.10;;;;;;4985997;28;114302;-79
2023/07/26 07:48:36;;;;;;;7.82;5.50;;;20.70;55.20;;;;;;4983588;28;114993;-79
2023/07/26 07:51:03;;;;;;;7.18;5.85;;;20.70;55.00;;;;;;4983917;28;114870;-78
2023/07/26 07:53:30;;;;;;;10.35;6.22;;;20.80;54.50;;;;;;4986264;28;114178;-79
2023/07/26 07:55:58;;;;;;;9.10;5.70;;;20.60;54.80;;;;;;4985087;28;114497;-78
2023/07/26 07:58:26;;;;;;;6.95;5.32;;;20.60;55.40;;;;;;4984903;28;116146;-77
2023/07/26 08:00:58;;;;;;;7.78;5.45;;;20.50;55.10;;;;;;4983639;28;117210;-78
2023/07/26 08:03:26;;;;;;;7.13;4.88;;;20.50;55.50;;;;;;4968676;28;114388;-78
2023/07/26 08:05:53;;;;;;;7.43;5.18;;;20.50;55.70;;;;;;4985255;28;114261;-78
2023/07/26 08:08:21;;;;;;;7.15;4.93;;;20.50;55.80;;;;;;4985046;28;115586;-78
2023/07/26 08:10:48;;;;;;;7.57;4.72;;;20.40;55.50;;;;;;4985244;28;114610;-78
2023/07/26 08:13:15;;;;;;;6.72;4.88;;;20.20;55.90;;;;;;4984420;28;114208;-79
2023/07/26 08:15:42;;;;;;;8.20;5.93;;;20.20;56.20;;;;;;4984313;28;114503;-79
2023/07/26 08:18:10;;;;;;;6.45;5.18;;;20.20;55.90;;;;;;4984751;28;115669;-79
2023/07/26 08:20:37;;;;;;;7.68;5.50;;;20.10;56.00;;;;;;4984557;28;115989;-79
2023/07/26 08:23:04;;;;;;;5.55;4.20;;;20.00;56.40;;;;;;4968362;28;114260;-79
2023/07/26 08:25:32;;;;;;;6.05;4.10;;;20.00;56.50;;;;;;4985728;28;114316;-78
2023/07/26 08:27:59;;;;;;;6.28;4.15;;;19.90;56.80;;;;;;4984601;28;115414;-79
2023/07/26 08:30:26;;;;;;;5.53;3.65;;;20.00;57.10;;;;;;4967483;28;116364;-79
2023/07/26 08:32:53;;;;;;;6.28;3.35;;;20.10;56.90;;;;;;4968054;28;114093;-79
2023/07/26 08:35:23;;;;;;;5.05;3.50;;;20.30;56.20;;;;;;4983447;28;114432;-78
2023/07/26 08:37:51;;;;;;;6.53;3.28;;;20.20;56.40;;;;;;4982831;28;116102;-78
2023/07/26 08:40:18;;;;;;;4.82;3.45;;;20.00;56.70;;;;;;4984700;28;114662;-79
2023/07/26 08:42:45;;;;;;;5.28;3.80;;;20.00;56.90;;;;;;4984068;28;114517;-78
2023/07/26 08:45:12;;;;;;;5.55;3.55;;;19.90;56.80;;;;;;4984452;28;114539;-80
2023/07/26 08:47:39;;;;;;;5.10;3.63;;;19.80;57.40;;;;;;4983121;28;115749;-77
2023/07/26 08:50:08;;;;;;;5.97;3.38;;;19.90;57.30;;;;;;4966998;28;114691;-79
2023/07/26 08:52:35;;;;;;;5.57;3.05;;;20.00;56.60;;;;;;4985614;28;114184;-78
2023/07/26 08:55:02;;;;;;;5.97;3.17;;;19.90;56.90;;;;;;4967911;28;114529;-78
2023/07/26 08:57:29;;;;;;;4.20;3.10;;;19.80;57.10;;;;;;4986315;28;116785;-78
2023/07/26 08:59:57;;;;;;;5.55;3.22;;;19.70;57.30;;;;;;4970970;28;114618;-79
2023/07/26 09:02:24;;;;;;;5.95;3.35;;;19.50;57.80;;;;;;4988521;28;114398;-79
2023/07/26 09:04:52;;;;;;;3.88;2.95;;;19.40;58.30;;;;;;4989952;28;114371;-78
2023/07/26 09:07:19;;;;;;;4.32;3.45;;;19.50;57.80;;;;;;4987909;28;114905;-78
2023/07/26 09:09:46;;;;;;;5.88;3.88;;;19.50;58.00;;;;;;4988920;28;114685;-79
2023/07/26 09:12:26;;;;;;;4.75;3.00;;;19.50;57.90;;;;;;4988646;28;114378;-78
2023/07/26 09:14:57;;;;;;;5.07;3.55;;;19.60;57.90;;;;;;4988118;28;114286;-79
2023/07/26 09:17:40;;;;;;;4.93;4.20;;;19.60;57.70;;;;;;4988365;28;114856;-79
2023/07/26 09:20:19;;;;;;;8.13;4.40;;;19.70;57.60;;;;;;4988148;28;114663;-79
2023/07/26 09:22:46;;;;;;;5.05;3.80;;;19.70;57.50;;;;;;4988701;28;114221;-79
2023/07/26 09:25:13;;;;;;;4.93;3.28;;;19.70;57.70;;;;;;4987305;28;114246;-78
2023/07/26 09:27:53;;;;;;;4.82;4.22;;;19.70;57.80;;;;;;4986471;28;115486;-79
2023/07/26 09:30:20;;;;;;;5.95;5.07;;;19.70;57.70;;;;;;4987878;28;114688;-78
2023/07/26 09:32:48;;;;;;;6.43;3.92;;;19.70;57.60;;;;;;4987122;28;114247;-79
2023/07/26 09:35:15;;;;;;;4.93;2.90;;;19.70;57.90;;;;;;4986623;28;114292;-78
2023/07/26 09:37:42;;;;;;;6.40;5.53;;;19.80;58.00;;;;;;4969773;28;115131;-78
2023/07/26 09:40:10;;;;;;;4.78;3.03;;;19.80;57.20;;;;;;4986513;28;114967;-78
2023/07/26 09:42:46;;;;;;;3.47;2.70;;;19.80;57.30;;;;;;4986957;28;114359;-79
2023/07/26 09:45:20;;;;;;;4.20;2.88;;;19.80;57.40;;;;;;4988630;28;114320;-79
2023/07/26 09:47:47;;;;;;;6.05;4.07;;;19.80;57.20;;;;;;4970365;28;114937;-78
2023/07/26 09:50:29;;;;;;;5.65;3.50;;;19.80;56.80;;;;;;4985492;28;116632;-78
2023/07/26 09:52:59;;;;;;;6.28;3.15;;;19.80;56.70;;;;;;4987396;28;114105;-79
2023/07/26 09:55:27;;;;;;;4.20;2.72;;;19.60;57.40;;;;;;4986766;28;114203;-79
2023/07/26 09:58:00;;;;;;;4.32;2.85;;;19.50;57.40;;;;;;4986516;28;114932;-78
2023/07/26 10:00:28;;;;;;;3.92;2.42;;;19.50;57.20;;;;;;4985817;28;114570;-79
2023/07/26 10:03:01;;;;;;;4.57;2.53;;;19.50;57.10;;;;;;4970538;28;114059;-79
2023/07/26 10:05:34;;;;;;;5.90;3.23;;;19.40;57.30;;;;;;4970709;28;114412;-79
2023/07/26 10:08:02;;;;;;;4.72;3.55;;;19.30;57.10;;;;;;4985345;28;115262;-78
2023/07/26 10:10:29;;;;;;;5.55;3.25;;;19.00;58.20;;;;;;4985910;28;115011;-78
2023/07/26 10:12:57;;;;;;;5.53;3.63;;;18.80;59.00;;;;;;4969779;28;114101;-78
2023/07/26 10:15:25;;;;;;;5.95;4.10;;;18.90;58.70;;;;;;4986730;28;114424;-79
2023/07/26 10:17:52;;;;;;;4.85;2.22;;;18.90;58.50;;;;;;4984981;28;115628;-77
2023/07/26 10:20:20;;;;;;;4.00;2.70;;;18.90;58.60;;;;;;4985497;28;115112;-78
2023/07/26 10:22:47;;;;;;;3.22;1.92;;;19.00;57.70;;;;;;4987413;28;114371;-79
2023/07/26 10:25:14;;;;;;;4.38;2.13;;;18.90;57.70;;;;;;4985728;28;114381;-79
2023/07/26 10:27:42;;;;;;;5.20;2.60;;;19.00;58.00;;;;;;4985094;28;114957;-78
2023/07/26 10:30:12;;;;;;;5.43;3.58;;;19.10;58.10;;;;;;4968750;28;115857;-78
2023/07/26 10:32:48;;;;;;;4.10;2.40;;;19.20;57.50;;;;;;4986097;28;114119;-80
2023/07/26 10:35:29;;;;;;;3.95;2.25;;;19.20;56.50;;;;;;4985821;28;114309;-79
2023/07/26 10:37:58;;;;;;;4.95;3.10;;;19.00;58.20;;;;;;4986523;28;114984;-78
2023/07/26 10:40:43;;;;;;;4.38;2.28;;;19.10;57.30;;;;;;4986198;28;116119;-77
2023/07/26 10:43:38;;;;;;;3.33;2.22;;;19.00;56.60;;;;;;4968958;28;114223;-78
2023/07/26 10:46:09;;;;;;;4.55;2.33;;;18.90;57.30;;;;;;4969953;28;114792;-79
2023/07/26 10:48:40;;;;;;;4.63;2.75;;;18.90;58.40;;;;;;4986330;28;114911;-79
2023/07/26 10:51:27;;;;;;;6.95;4.82;;;19.00;57.90;;;;;;4984884;28;116651;-79
2023/07/26 10:53:54;;;;;;;7.50;5.95;;;19.20;57.00;;;;;;4985933;28;114266;-78
2023/07/26 10:56:25;;;;;;;4.50;2.50;;;19.30;57.20;;;;;;4986929;28;114311;-79
2023/07/26 10:58:56;;;;;;;4.05;2.45;;;19.40;57.10;;;;;;4984834;28;115118;-80
2023/07/26 11:01:38;;;;;;;5.97;3.30;;;19.60;56.70;;;;;;4986308;28;114511;-79
2023/07/26 11:04:11;;;;;;;4.13;2.42;;;19.70;56.10;;;;;;4986560;28;114122;-78
2023/07/26 11:06:58;;;;;;;5.10;2.13;;;19.60;56.30;;;;;;4969430;28;114345;-78
2023/07/26 11:09:29;;;;;;;4.10;2.20;;;19.70;55.90;;;;;;4984474;28;114954;-79
2023/07/26 11:12:01;;;;;;;4.05;2.13;;;19.60;56.50;;;;;;4985181;28;114604;-79
2023/07/26 11:14:30;;;;;;;6.65;2.80;;;19.70;56.70;;;;;;4985552;28;114114;-79
2023/07/26 11:17:01;;;;;;;4.35;2.60;;;19.80;56.30;;;;;;4969258;28;114234;-79
2023/07/26 11:19:29;;;;;;;4.18;2.65;;;19.80;55.80;;;;;;4967461;28;114883;-79
2023/07/26 11:22:04;;;;;;;4.40;2.20;;;19.70;56.50;;;;;;4985109;28;115114;-78
2023/07/26 11:24:31;;;;;;;5.88;3.40;;;19.70;56.60;;;;;;4985846;28;114405;-79
2023/07/26 11:27:05;;;;;;;4.28;2.38;;;19.70;56.20;;;;;;4969561;28;114542;-79
2023/07/26 11:29:33;;;;;;;6.18;3.25;;;19.60;56.50;;;;;;4984490;28;114931;-79
2023/07/26 11:32:00;;;;;;;7.05;3.53;;;19.70;56.70;;;;;;4967867;28;116213;-79
2023/07/26 11:34:28;;;;;;;6.57;3.53;;;19.80;56.10;;;;;;4968190;28;114109;-79
2023/07/26 11:37:08;;;;;;;8.05;3.88;;;19.80;56.20;;;;;;4985022;28;114354;-78
2023/07/26 11:39:35;;;;;;;6.05;3.42;;;20.00;55.90;;;;;;4967015;28;115824;-78
2023/07/26 11:42:04;;;;;;;5.57;3.88;;;19.90;55.70;;;;;;4986646;28;114377;-78
2023/07/26 11:44:32;;;;;;;5.82;3.88;;;20.00;55.80;;;;;;4952570;28;114602;-78
2023/07/26 11:47:02;;;;;;;9.15;4.25;;;19.90;54.80;;;;;;4987361;28;114004;-78
2023/07/26 11:49:32;;;;;;;7.35;4.38;;;19.80;54.90;;;;;;4985644;28;115501;-79
2023/07/26 11:51:59;;;;;;;7.80;4.68;;;19.70;56.10;;;;;;4984331;28;115850;-79
2023/07/26 11:54:26;;;;;;;6.10;3.67;;;19.50;56.20;;;;;;4986023;28;114256;-78
2023/07/26 11:56:54;;;;;;;6.18;3.70;;;19.60;55.80;;;;;;4952769;28;114287;-79
2023/07/26 11:59:21;;;;;;;6.03;4.18;;;19.60;56.00;;;;;;4984384;28;114815;-79
2023/07/26 12:01:48;;;;;;;7.93;4.60;;;19.80;56.20;;;;;;4984957;28;115294;-78
2023/07/26 12:04:16;;;;;;;6.55;5.25;;;19.80;55.90;;;;;;4985104;28;114091;-79
2023/07/26 12:06:46;;;;;;;6.88;4.03;;;19.80;55.90;;;;;;4984881;28;114432;-79
2023/07/26 12:09:14;;;;;;;7.65;4.47;;;20.00;55.70;;;;;;4985085;28;114828;-79
2023/07/26 12:11:50;;;;;;;6.85;4.97;;;20.10;55.70;;;;;;4967699;28;116829;-78
2023/07/26 12:14:21;;;;;;;5.93;4.43;;;20.30;54.40;;;;;;4985648;28;114373;-79
2023/07/26 12:16:52;;;;;;;7.30;3.60;;;20.20;55.10;;;;;;4969161;28;114348;-77
2023/07/26 12:19:24;;;;;;;5.30;3.88;;;20.30;54.60;;;;;;4983787;28;115064;-79
2023/07/26 12:21:51;;;;;;;4.88;3.60;;;20.30;54.60;;;;;;4983527;28;117903;-78
2023/07/26 12:24:19;;;;;;;5.50;3.60;;;20.40;54.90;;;;;;4967962;28;114317;-79
2023/07/26 12:26:48;;;;;;;5.18;3.50;;;20.50;54.70;;;;;;4984678;28;114177;-79
2023/07/26 12:29:16;;;;;;;4.30;2.80;;;20.70;54.30;;;;;;4983678;28;114928;-78
2023/07/26 12:31:43;;;;;;;4.35;3.03;;;20.60;53.70;;;;;;4986186;28;114754;-79
2023/07/26 12:34:12;;;;;;;5.72;3.35;;;20.60;54.30;;;;;;4971446;28;114122;-79
2023/07/26 12:36:45;;;;;;;5.05;3.60;;;20.70;54.40;;;;;;4988732;28;114405;-78
2023/07/26 12:39:15;;;;;;;5.50;3.35;;;20.80;54.10;;;;;;4989708;28;114929;-78